createdAt,value
2023-04-19T00:05:13.985Z,0
2023-04-19T00:15:11.613Z,0
2023-04-19T00:25:11.792Z,0
2023-04-19T00:35:11.563Z,0
2023-04-19T00:45:11.482Z,0
2023-04-19T00:55:12.267Z,0
2023-04-19T01:05:11.749Z,0
2023-04-19T01:15:12.058Z,0
2023-04-19T01:25:11.710Z,0
2023-04-19T01:35:11.707Z,0
2023-04-19T01:45:12.120Z,0
2023-04-19T01:55:11.619Z,0
2023-04-19T02:05:11.737Z,0
2023-04-19T02:15:12.153Z,0
2023-04-19T02:25:11.706Z,0
2023-04-19T02:35:13.663Z,0
2023-04-19T02:45:13.260Z,0
2023-04-19T02:55:11.703Z,0
2023-04-19T03:05:11.744Z,0
2023-04-19T03:15:12.119Z,0
2023-04-19T03:25:11.532Z,0
2023-04-19T03:35:12.044Z,0
2023-04-19T03:45:11.719Z,0
2023-04-19T03:55:12.577Z,0
2023-04-19T04:05:11.680Z,0
2023-04-19T04:15:11.699Z,0
2023-04-19T04:25:11.607Z,0
2023-04-19T04:35:11.961Z,0
2023-04-19T04:45:11.654Z,0
2023-04-19T04:55:11.552Z,0
2023-04-19T05:05:12.059Z,0
2023-04-19T05:15:11.957Z,0
2023-04-19T05:25:12.148Z,0
2023-04-19T05:35:11.688Z,0
2023-04-19T05:45:11.934Z,0
2023-04-19T05:55:11.725Z,0
2023-04-19T06:05:11.931Z,0
2023-04-19T06:15:12.168Z,0
2023-04-19T06:25:11.628Z,0
2023-04-19T06:35:11.563Z,0
2023-04-19T06:45:12.213Z,0
2023-04-19T06:55:15.590Z,0
2023-04-19T07:05:13.715Z,0
2023-04-19T07:15:13.779Z,0
2023-04-19T07:25:14.073Z,0
2023-04-19T07:35:13.705Z,0
2023-04-19T07:45:14.119Z,0
2023-04-19T07:55:13.624Z,0
2023-04-19T08:05:13.980Z,0
2023-04-19T08:15:38.104Z,0
2023-04-19T08:25:13.750Z,0
2023-04-19T08:35:14.786Z,0
2023-04-19T08:45:26.160Z,0
2023-04-19T08:55:13.609Z,0
2023-04-19T09:05:14.572Z,0
2023-04-19T09:15:14.038Z,0
2023-04-19T09:25:37.808Z,0
2023-04-19T09:35:13.630Z,0
2023-04-19T09:45:29.393Z,0
2023-04-19T09:55:24.984Z,0
2023-04-19T10:05:20.316Z,0
2023-04-19T10:15:14.031Z,0
2023-04-19T10:25:14.184Z,0
2023-04-19T10:35:14.710Z,0
2023-04-19T10:45:13.919Z,0.0001
2023-04-19T10:55:13.822Z,0.0004
2023-04-19T11:05:13.747Z,0.0007
2023-04-19T11:15:13.924Z,0.0010
2023-04-19T11:38:28.600Z,0.0015
2023-04-19T11:48:29.869Z,0.0018
2023-04-19T11:58:31.213Z,0.0021
2023-04-19T12:08:29.676Z,0.0023
2023-04-19T12:18:30.668Z,0.0027
2023-04-19T12:28:32.101Z,0.0031
2023-04-19T12:38:31.481Z,0.0035
2023-04-19T12:48:30.414Z,0.0039
2023-04-19T12:58:30.674Z,0.0044
2023-04-19T13:08:44.191Z,0.0048
2023-04-19T13:18:30.594Z,0.0052
2023-04-19T13:28:32.154Z,0.0056
2023-04-19T13:38:30.629Z,0.0060
2023-04-19T13:48:33.164Z,0.0064
2023-04-19T13:58:30.852Z,0.0069
2023-04-19T14:08:30.694Z,0.0073
2023-04-19T14:18:30.866Z,0.0077
2023-04-19T14:28:34.290Z,0.0081
2023-04-19T14:38:30.827Z,0.0085
2023-04-19T14:48:31.300Z,0.0089
2023-04-19T14:58:34.803Z,0.0095
2023-04-19T15:08:31.219Z,0.0107
2023-04-19T15:18:32.507Z,0.0138
2023-04-19T15:28:31.452Z,0.0173
2023-04-19T15:38:31.361Z,0.0215
2023-04-19T15:48:31.321Z,0.0258
2023-04-19T15:58:31.520Z,0.0301
2023-04-19T16:08:31.403Z,0.0344
2023-04-19T16:18:31.419Z,0.0387
2023-04-19T16:28:31.533Z,0.0430
2023-04-19T16:38:31.433Z,0.0473
2023-04-19T16:48:31.753Z,0.0516
2023-04-19T16:58:31.523Z,0.0559
2023-04-19T17:08:31.524Z,0.0602
2023-04-19T17:18:31.650Z,0.0645
2023-04-19T17:28:33.353Z,0.0688
2023-04-19T17:38:32.186Z,0.0731
2023-04-19T17:48:32.239Z,0.0774
2023-04-19T17:58:31.902Z,0.0817
2023-04-19T18:08:32.352Z,0.0860
2023-04-19T18:18:31.755Z,0.0903
2023-04-19T18:28:33.954Z,0.0946
2023-04-19T18:38:33.508Z,0.0990
2023-04-19T18:48:33.093Z,0.1033
2023-04-19T18:58:36.368Z,0.1076
2023-04-19T19:08:33.424Z,0.1119
2023-04-19T19:18:33.695Z,0.1162
2023-04-19T19:28:34.414Z,0.1205
2023-04-19T19:38:33.569Z,0.1248
2023-04-19T19:48:40.300Z,0.1291
2023-04-19T19:58:47.712Z,0.1334
2023-04-19T20:08:33.355Z,0.1377
2023-04-19T20:18:34.184Z,0.1420
2023-04-19T20:28:34.276Z,0.1463
2023-04-19T20:38:34.749Z,0.1506
2023-04-19T20:48:33.971Z,0.1549
2023-04-19T20:58:33.755Z,0.1592
2023-04-19T21:08:34.312Z,0.1635
2023-04-19T21:18:34.309Z,0.1678
2023-04-19T21:28:35.375Z,0.1721
2023-04-19T21:38:35.088Z,0.1765
2023-04-19T21:48:34.533Z,0.1808
2023-04-19T21:58:34.985Z,0.1851
2023-04-19T22:08:36.129Z,0.0004
2023-04-19T22:18:35.319Z,0.0004
2023-04-19T22:28:36.585Z,0.0004
2023-04-19T22:38:37.220Z,0.0004
2023-04-19T22:48:36.593Z,0.0004
2023-04-19T22:58:36.469Z,0.0004
2023-04-19T23:08:39.685Z,0.0004
2023-04-19T23:18:36.446Z,0.0004
2023-04-19T23:28:36.394Z,0.0004
2023-04-19T23:38:36.811Z,0.0004
2023-04-19T23:48:37.400Z,0.0004
2023-04-19T23:58:39.197Z,0.0004
